WMT136 LRTR-LIBD
Flight info
| Callsign | WMT136 |
|---|---|
| Flight time | N/A |
| Altitude | 34000 |
| Route | MAVIT DCT OSLUD DCT AIOSA DCT BANAV |
| Aircraft | A21N/M-SDE2E3FGHIRWXY/LB1 |
Departure
| Time | 2026-04-23 04:20 |
|---|---|
| Airport | Timișoara Traian Vuia International Airport (LRTR) |
Arrival
| Time | N/A |
|---|---|
| Airport | Bari Karol Wojtyła International Airport (LIBD) |
| Time | Latitude | Longitude | Altitude | Speed | Heading |
|---|---|---|---|---|---|
| 2026-04-23 03:36 | 45.81050 | 21.32186 | 347 ft | 0 kts | 199° |
| 2026-04-23 04:08 | 45.81060 | 21.32192 | 347 ft | 4 kts | 199° |
| 2026-04-23 04:08 | 45.81082 | 21.32204 | 347 ft | 4 kts | 218° |
| 2026-04-23 04:09 | 45.81092 | 21.32231 | 347 ft | 4 kts | 277° |
| 2026-04-23 04:09 | 45.81088 | 21.32259 | 347 ft | 1 kts | 290° |
| 2026-04-23 04:09 | 45.81086 | 21.32263 | 347 ft | 0 kts | 290° |
| 2026-04-23 04:17 | 45.81087 | 21.32260 | 347 ft | 2 kts | 290° |
| 2026-04-23 04:17 | 45.81093 | 21.32236 | 347 ft | 4 kts | 289° |
| 2026-04-23 04:17 | 45.81104 | 21.32194 | 347 ft | 5 kts | 289° |
| 2026-04-23 04:18 | 45.81119 | 21.32134 | 351 ft | 7 kts | 290° |
| 2026-04-23 04:18 | 45.81141 | 21.32065 | 348 ft | 7 kts | 329° |
| 2026-04-23 04:18 | 45.81197 | 21.32065 | 347 ft | 9 kts | 19° |
| 2026-04-23 04:18 | 45.81263 | 21.32099 | 347 ft | 11 kts | 19° |
| 2026-04-23 04:19 | 45.81341 | 21.32138 | 353 ft | 11 kts | 19° |
| 2026-04-23 04:19 | 45.81382 | 21.32159 | 348 ft | 6 kts | 31° |
| 2026-04-23 04:19 | 45.81377 | 21.32222 | 351 ft | 8 kts | 111° |
| 2026-04-23 04:19 | 45.81314 | 21.32465 | 355 ft | 58 kts | 109° |
| 2026-04-23 04:20 | 45.81095 | 21.33341 | 350 ft | 128 kts | 109° |
| 2026-04-23 04:20 | 45.80728 | 21.34790 | 468 ft | 167 kts | 109° |
| 2026-04-23 04:20 | 45.80346 | 21.36322 | 1251 ft | 163 kts | 110° |
| 2026-04-23 04:20 | 45.79940 | 21.37869 | 1856 ft | 170 kts | 109° |
| 2026-04-23 04:21 | 45.79516 | 21.39518 | 2321 ft | 184 kts | 107° |
| 2026-04-23 04:21 | 45.79086 | 21.41299 | 2919 ft | 191 kts | 107° |
| 2026-04-23 04:21 | 45.78616 | 21.43077 | 3676 ft | 191 kts | 110° |
| 2026-04-23 04:21 | 45.78130 | 21.44863 | 4382 ft | 194 kts | 108° |
| 2026-04-23 04:22 | 45.77582 | 21.46634 | 5044 ft | 199 kts | 127° |
| 2026-04-23 04:22 | 45.76405 | 21.47698 | 5557 ft | 207 kts | 168° |
| 2026-04-23 04:22 | 45.74998 | 21.47668 | 6287 ft | 201 kts | 198° |
| 2026-04-23 04:22 | 45.73790 | 21.46688 | 6910 ft | 202 kts | 221° |
| 2026-04-23 04:23 | 45.72672 | 21.45435 | 7504 ft | 208 kts | 213° |
| 2026-04-23 04:23 | 45.71278 | 21.44788 | 8068 ft | 215 kts | 189° |
| 2026-04-23 04:23 | 45.69751 | 21.44717 | 8621 ft | 226 kts | 178° |
| 2026-04-23 04:23 | 45.68136 | 21.44788 | 9115 ft | 238 kts | 179° |
| 2026-04-23 04:24 | 45.66438 | 21.44831 | 9615 ft | 251 kts | 179° |
| 2026-04-23 04:24 | 45.64617 | 21.44859 | 9942 ft | 273 kts | 179° |
| 2026-04-23 04:24 | 45.62653 | 21.44877 | 10283 ft | 292 kts | 179° |
| 2026-04-23 04:24 | 45.60544 | 21.44891 | 10608 ft | 313 kts | 179° |
| 2026-04-23 04:25 | 45.58308 | 21.44902 | 10950 ft | 331 kts | 179° |
| 2026-04-23 04:25 | 45.55996 | 21.44910 | 11497 ft | 340 kts | 179° |
| 2026-04-23 04:25 | 45.53576 | 21.44916 | 12217 ft | 345 kts | 179° |
| 2026-04-23 04:25 | 45.51192 | 21.44923 | 12965 ft | 349 kts | 179° |
| 2026-04-23 04:26 | 45.48749 | 21.44930 | 13718 ft | 354 kts | 179° |
| 2026-04-23 04:26 | 45.46272 | 21.44937 | 14389 ft | 358 kts | 178° |
| 2026-04-23 04:26 | 45.43761 | 21.44943 | 15079 ft | 362 kts | 178° |
| 2026-04-23 04:26 | 45.41245 | 21.44587 | 15741 ft | 367 kts | 194° |
| 2026-04-23 04:27 | 45.38890 | 21.43168 | 16399 ft | 372 kts | 209° |
| 2026-04-23 04:27 | 45.36642 | 21.41284 | 17062 ft | 376 kts | 211° |
| 2026-04-23 04:27 | 45.34383 | 21.39352 | 17700 ft | 381 kts | 210° |
| 2026-04-23 04:28 | 45.29751 | 21.35503 | 18889 ft | 390 kts | 209° |
| 2026-04-23 04:28 | 45.28187 | 21.34229 | 19256 ft | 393 kts | 208° |
| 2026-04-23 04:28 | 45.25794 | 21.32298 | 19805 ft | 397 kts | 208° |
| 2026-04-23 04:28 | 45.23495 | 21.30106 | 20329 ft | 402 kts | 221° |
| 2026-04-23 04:29 | 45.21513 | 21.27271 | 20875 ft | 406 kts | 226° |
| 2026-04-23 04:29 | 45.19579 | 21.24327 | 21382 ft | 410 kts | 226° |
| 2026-04-23 04:29 | 45.17620 | 21.21354 | 21875 ft | 415 kts | 226° |
| 2026-04-23 04:29 | 45.15628 | 21.18354 | 22403 ft | 419 kts | 225° |
| 2026-04-23 04:30 | 45.13617 | 21.15347 | 22897 ft | 423 kts | 225° |
| 2026-04-23 04:30 | 45.11597 | 21.12342 | 23402 ft | 427 kts | 225° |
| 2026-04-23 04:30 | 45.09543 | 21.09287 | 23866 ft | 431 kts | 225° |
| 2026-04-23 04:30 | 45.07466 | 21.06202 | 24275 ft | 434 kts | 225° |
| 2026-04-23 04:31 | 45.05368 | 21.03090 | 24682 ft | 438 kts | 225° |
| 2026-04-23 04:31 | 45.03258 | 20.99964 | 25081 ft | 441 kts | 225° |
| 2026-04-23 04:31 | 45.01127 | 20.96810 | 25486 ft | 445 kts | 225° |
| 2026-04-23 04:31 | 44.98982 | 20.93642 | 25884 ft | 448 kts | 225° |
| 2026-04-23 04:32 | 44.96820 | 20.90447 | 26274 ft | 451 kts | 225° |
| 2026-04-23 04:32 | 44.94647 | 20.87236 | 26652 ft | 454 kts | 225° |
| 2026-04-23 04:32 | 44.92456 | 20.84005 | 27021 ft | 457 kts | 224° |
| 2026-04-23 04:32 | 44.90251 | 20.80761 | 27381 ft | 460 kts | 224° |
| 2026-04-23 04:33 | 44.88023 | 20.77489 | 27740 ft | 463 kts | 224° |
| 2026-04-23 04:33 | 44.85780 | 20.74199 | 28091 ft | 466 kts | 224° |
| 2026-04-23 04:33 | 44.83523 | 20.70892 | 28431 ft | 469 kts | 224° |
| 2026-04-23 04:33 | 44.81256 | 20.67572 | 28767 ft | 472 kts | 224° |
| 2026-04-23 04:34 | 44.78970 | 20.64225 | 29098 ft | 475 kts | 224° |
| 2026-04-23 04:34 | 44.76670 | 20.60865 | 29427 ft | 478 kts | 224° |
| 2026-04-23 04:34 | 44.74356 | 20.57485 | 29748 ft | 481 kts | 224° |
| 2026-04-23 04:34 | 44.72025 | 20.54087 | 30056 ft | 484 kts | 224° |
| 2026-04-23 04:35 | 44.69684 | 20.50678 | 30332 ft | 486 kts | 224° |
| 2026-04-23 04:35 | 44.67354 | 20.47295 | 30637 ft | 488 kts | 224° |
| 2026-04-23 04:35 | 44.64989 | 20.43870 | 30932 ft | 489 kts | 224° |
| 2026-04-23 04:35 | 44.62613 | 20.40427 | 31199 ft | 490 kts | 224° |
| 2026-04-23 04:36 | 44.60230 | 20.36973 | 31487 ft | 491 kts | 224° |
| 2026-04-23 04:36 | 44.57850 | 20.33526 | 31851 ft | 490 kts | 224° |
| 2026-04-23 04:36 | 44.55483 | 20.30102 | 32228 ft | 489 kts | 224° |
| 2026-04-23 04:36 | 44.53117 | 20.26687 | 32566 ft | 488 kts | 224° |
| 2026-04-23 04:37 | 44.50757 | 20.23288 | 32977 ft | 485 kts | 224° |
| 2026-04-23 04:37 | 44.48412 | 20.19912 | 33347 ft | 483 kts | 224° |
| 2026-04-23 04:37 | 44.46070 | 20.16546 | 33687 ft | 481 kts | 225° |
| 2026-04-23 04:37 | 44.43767 | 20.13238 | 33998 ft | 480 kts | 225° |
| 2026-04-23 04:38 | 44.41438 | 20.09900 | 34183 ft | 479 kts | 225° |
| 2026-04-23 04:38 | 44.39117 | 20.06573 | 34202 ft | 478 kts | 225° |
| 2026-04-23 04:38 | 44.34479 | 19.99944 | 34188 ft | 474 kts | 225° |
| 2026-04-23 04:39 | 44.29870 | 19.93361 | 34182 ft | 473 kts | 225° |
| 2026-04-23 04:39 | 44.25260 | 19.86809 | 34191 ft | 473 kts | 225° |
| 2026-04-23 04:40 | 44.20655 | 19.80264 | 34197 ft | 473 kts | 225° |
| 2026-04-23 04:40 | 44.16054 | 19.73749 | 34199 ft | 471 kts | 225° |